sensor_id;sensor_type;location;lat;lon;timestamp;pressure;altitude;pressure_sealevel;temperature;humidity
70968;BME280;58629;48.808;8.820;2023-12-04T00:00:39;97163.94;;;-3.72;95.44
70968;BME280;58629;48.808;8.820;2023-12-04T00:03:04;97153.56;;;-3.72;96.16
70968;BME280;58629;48.808;8.820;2023-12-04T00:05:30;97145.59;;;-3.59;95.52
70968;BME280;58629;48.808;8.820;2023-12-04T00:07:55;97149.25;;;-3.60;94.53
70968;BME280;58629;48.808;8.820;2023-12-04T00:10:20;97148.03;;;-3.62;94.82
70968;BME280;58629;48.808;8.820;2023-12-04T00:12:46;97137.88;;;-3.67;94.89
70968;BME280;58629;48.808;8.820;2023-12-04T00:15:11;97139.25;;;-3.70;95.98
70968;BME280;58629;48.808;8.820;2023-12-04T00:17:37;97134.28;;;-3.75;95.90
70968;BME280;58629;48.808;8.820;2023-12-04T00:20:06;97126.38;;;-3.78;95.99
70968;BME280;58629;48.808;8.820;2023-12-04T00:22:32;97118.47;;;-3.82;95.70
70968;BME280;58629;48.808;8.820;2023-12-04T00:24:57;97129.03;;;-3.87;96.05
70968;BME280;58629;48.808;8.820;2023-12-04T00:27:23;97132.97;;;-3.89;95.60
70968;BME280;58629;48.808;8.820;2023-12-04T00:29:52;97128.75;;;-3.94;95.72
70968;BME280;58629;48.808;8.820;2023-12-04T00:32:17;97140.34;;;-4.00;95.36
70968;BME280;58629;48.808;8.820;2023-12-04T00:34:43;97135.34;;;-4.05;95.54
70968;BME280;58629;48.808;8.820;2023-12-04T00:37:08;97130.19;;;-4.13;95.55
70968;BME280;58629;48.808;8.820;2023-12-04T00:39:34;97116.22;;;-4.12;95.73
70968;BME280;58629;48.808;8.820;2023-12-04T00:41:59;97118.03;;;-4.13;94.83
70968;BME280;58629;48.808;8.820;2023-12-04T00:44:24;97116.06;;;-4.16;94.84
70968;BME280;58629;48.808;8.820;2023-12-04T00:46:50;97117.00;;;-4.20;95.22
70968;BME280;58629;48.808;8.820;2023-12-04T00:49:15;97124.19;;;-4.26;95.44
70968;BME280;58629;48.808;8.820;2023-12-04T00:51:40;97113.41;;;-4.28;96.05
70968;BME280;58629;48.808;8.820;2023-12-04T00:54:06;97121.00;;;-4.31;95.77
70968;BME280;58629;48.808;8.820;2023-12-04T00:56:31;97112.97;;;-4.38;96.03
70968;BME280;58629;48.808;8.820;2023-12-04T00:58:56;97116.16;;;-4.42;96.21
70968;BME280;58629;48.808;8.820;2023-12-04T01:01:22;97103.44;;;-4.47;96.14
70968;BME280;58629;48.808;8.820;2023-12-04T01:03:48;97104.47;;;-4.48;96.43
70968;BME280;58629;48.808;8.820;2023-12-04T01:06:21;97113.31;;;-4.49;96.66
70968;BME280;58629;48.808;8.820;2023-12-04T01:08:47;97108.91;;;-4.48;96.73
70968;BME280;58629;48.808;8.820;2023-12-04T01:11:14;97102.06;;;-4.44;96.20
70968;BME280;58629;48.808;8.820;2023-12-04T01:13:39;97099.16;;;-4.43;95.82
70968;BME280;58629;48.808;8.820;2023-12-04T01:16:05;97093.84;;;-4.46;95.89
70968;BME280;58629;48.808;8.820;2023-12-04T01:18:31;97085.53;;;-4.52;96.32
70968;BME280;58629;48.808;8.820;2023-12-04T01:20:56;97088.38;;;-4.53;96.95
70968;BME280;58629;48.808;8.820;2023-12-04T01:23:21;97082.78;;;-4.55;97.16
70968;BME280;58629;48.808;8.820;2023-12-04T01:25:47;97086.13;;;-4.55;97.11
70968;BME280;58629;48.808;8.820;2023-12-04T01:28:12;97080.97;;;-4.55;97.18
70968;BME280;58629;48.808;8.820;2023-12-04T01:30:39;97069.13;;;-4.56;96.57
70968;BME280;58629;48.808;8.820;2023-12-04T01:33:04;97072.75;;;-4.57;97.66
70968;BME280;58629;48.808;8.820;2023-12-04T01:35:30;97071.69;;;-4.56;97.85
70968;BME280;58629;48.808;8.820;2023-12-04T01:37:55;97075.03;;;-4.55;97.72
70968;BME280;58629;48.808;8.820;2023-12-04T01:40:20;97077.31;;;-4.54;97.36
70968;BME280;58629;48.808;8.820;2023-12-04T01:42:46;97077.59;;;-4.55;97.58
70968;BME280;58629;48.808;8.820;2023-12-04T01:45:11;97074.41;;;-4.52;97.27
70968;BME280;58629;48.808;8.820;2023-12-04T01:47:37;97065.59;;;-4.51;97.61
70968;BME280;58629;48.808;8.820;2023-12-04T01:50:03;97067.25;;;-4.47;96.61
70968;BME280;58629;48.808;8.820;2023-12-04T01:52:29;97062.69;;;-4.50;96.36
70968;BME280;58629;48.808;8.820;2023-12-04T01:54:55;97060.72;;;-4.53;96.11
70968;BME280;58629;48.808;8.820;2023-12-04T01:57:20;97052.09;;;-4.57;96.31
70968;BME280;58629;48.808;8.820;2023-12-04T01:59:46;97049.69;;;-4.62;96.83
70968;BME280;58629;48.808;8.820;2023-12-04T02:02:12;97049.97;;;-4.63;96.74
70968;BME280;58629;48.808;8.820;2023-12-04T02:04:38;97061.38;;;-4.64;96.82
70968;BME280;58629;48.808;8.820;2023-12-04T02:07:04;97049.06;;;-4.67;96.50
70968;BME280;58629;48.808;8.820;2023-12-04T02:09:30;97054.69;;;-4.65;97.41
70968;BME280;58629;48.808;8.820;2023-12-04T02:11:56;97055.00;;;-4.67;97.20
70968;BME280;58629;48.808;8.820;2023-12-04T02:14:22;97060.03;;;-4.70;96.76
70968;BME280;58629;48.808;8.820;2023-12-04T02:16:48;97058.97;;;-4.69;97.41
70968;BME280;58629;48.808;8.820;2023-12-04T02:19:14;97058.97;;;-4.69;96.68
70968;BME280;58629;48.808;8.820;2023-12-04T02:21:40;97050.16;;;-4.68;97.11
70968;BME280;58629;48.808;8.820;2023-12-04T02:24:05;97050.75;;;-4.71;96.89
70968;BME280;58629;48.808;8.820;2023-12-04T02:26:34;97041.19;;;-4.71;96.53
70968;BME280;58629;48.808;8.820;2023-12-04T02:29:07;97033.56;;;-4.67;95.95
70968;BME280;58629;48.808;8.820;2023-12-04T02:31:34;97035.91;;;-4.74;96.28
70968;BME280;58629;48.808;8.820;2023-12-04T02:34:00;97034.84;;;-4.82;96.48
70968;BME280;58629;48.808;8.820;2023-12-04T02:36:30;97030.28;;;-4.85;96.92
70968;BME280;58629;48.808;8.820;2023-12-04T02:38:56;97025.00;;;-4.88;96.53
70968;BME280;58629;48.808;8.820;2023-12-04T02:41:21;97029.25;;;-4.92;97.44
70968;BME280;58629;48.808;8.820;2023-12-04T02:43:47;97022.59;;;-4.93;97.59
70968;BME280;58629;48.808;8.820;2023-12-04T02:46:12;97016.66;;;-4.94;97.66
70968;BME280;58629;48.808;8.820;2023-12-04T02:48:37;96998.72;;;-4.90;96.99
70968;BME280;58629;48.808;8.820;2023-12-04T02:51:03;96999.03;;;-4.92;96.46
70968;BME280;58629;48.808;8.820;2023-12-04T02:53:28;96998.59;;;-4.94;96.84
70968;BME280;58629;48.808;8.820;2023-12-04T02:55:54;96988.88;;;-4.97;96.96
70968;BME280;58629;48.808;8.820;2023-12-04T02:58:19;96989.63;;;-4.96;97.51
70968;BME280;58629;48.808;8.820;2023-12-04T03:00:45;96984.91;;;-4.94;97.50
70968;BME280;58629;48.808;8.820;2023-12-04T03:03:10;96977.28;;;-4.91;97.01
70968;BME280;58629;48.808;8.820;2023-12-04T03:05:35;96974.72;;;-4.91;97.20
70968;BME280;58629;48.808;8.820;2023-12-04T03:08:00;96980.34;;;-4.89;97.41
70968;BME280;58629;48.808;8.820;2023-12-04T03:10:26;96973.03;;;-4.87;97.54
70968;BME280;58629;48.808;8.820;2023-12-04T03:12:51;96968.50;;;-4.90;96.14
70968;BME280;58629;48.808;8.820;2023-12-04T03:15:16;96968.94;;;-4.88;97.27
70968;BME280;58629;48.808;8.820;2023-12-04T03:17:42;96959.97;;;-4.82;98.18
70968;BME280;58629;48.808;8.820;2023-12-04T03:20:08;96951.25;;;-4.77;97.25
70968;BME280;58629;48.808;8.820;2023-12-04T03:22:38;96944.28;;;-4.77;97.09
70968;BME280;58629;48.808;8.820;2023-12-04T03:25:04;96940.00;;;-4.73;96.70
70968;BME280;58629;48.808;8.820;2023-12-04T03:27:30;96935.72;;;-4.69;96.40
70968;BME280;58629;48.808;8.820;2023-12-04T03:29:55;96927.84;;;-4.72;96.27
70968;BME280;58629;48.808;8.820;2023-12-04T03:32:21;96924.94;;;-4.71;96.80
70968;BME280;58629;48.808;8.820;2023-12-04T03:34:46;96927.66;;;-4.67;97.15
70968;BME280;58629;48.808;8.820;2023-12-04T03:37:11;96925.97;;;-4.63;97.02
70968;BME280;58629;48.808;8.820;2023-12-04T03:39:37;96931.72;;;-4.58;96.90
70968;BME280;58629;48.808;8.820;2023-12-04T03:42:02;96927.00;;;-4.56;97.01
70968;BME280;58629;48.808;8.820;2023-12-04T03:44:28;96918.50;;;-4.56;96.10
70968;BME280;58629;48.808;8.820;2023-12-04T03:46:53;96922.13;;;-4.57;96.46
70968;BME280;58629;48.808;8.820;2023-12-04T03:49:18;96918.81;;;-4.58;96.47
70968;BME280;58629;48.808;8.820;2023-12-04T03:51:44;96919.25;;;-4.56;96.70
70968;BME280;58629;48.808;8.820;2023-12-04T03:54:09;96917.13;;;-4.54;96.93
70968;BME280;58629;48.808;8.820;2023-12-04T03:56:34;96923.78;;;-4.53;96.63
70968;BME280;58629;48.808;8.820;2023-12-04T03:59:00;96926.16;;;-4.48;96.36
70968;BME280;58629;48.808;8.820;2023-12-04T04:01:25;96910.66;;;-4.48;96.82
70968;BME280;58629;48.808;8.820;2023-12-04T04:03:50;96914.47;;;-4.45;96.40
70968;BME280;58629;48.808;8.820;2023-12-04T04:06:16;96904.25;;;-4.42;96.68
70968;BME280;58629;48.808;8.820;2023-12-04T04:08:41;96914.41;;;-4.36;97.10
70968;BME280;58629;48.808;8.820;2023-12-04T04:11:07;96916.66;;;-4.35;96.65
70968;BME280;58629;48.808;8.820;2023-12-04T04:13:32;96901.56;;;-4.24;95.03
70968;BME280;58629;48.808;8.820;2023-12-04T04:15:57;96902.94;;;-4.27;95.26
70968;BME280;58629;48.808;8.820;2023-12-04T04:18:23;96899.19;;;-4.17;95.27
70968;BME280;58629;48.808;8.820;2023-12-04T04:20:48;96895.56;;;-4.16;94.80
70968;BME280;58629;48.808;8.820;2023-12-04T04:23:13;96897.50;;;-4.13;96.20
70968;BME280;58629;48.808;8.820;2023-12-04T04:25:39;96903.31;;;-4.16;96.00
70968;BME280;58629;48.808;8.820;2023-12-04T04:28:04;96902.06;;;-4.10;96.83
70968;BME280;58629;48.808;8.820;2023-12-04T04:30:29;96899.91;;;-4.08;95.40
70968;BME280;58629;48.808;8.820;2023-12-04T04:32:55;96897.44;;;-4.05;95.91
70968;BME280;58629;48.808;8.820;2023-12-04T04:35:20;96891.81;;;-4.07;95.60
70968;BME280;58629;48.808;8.820;2023-12-04T04:37:46;96893.75;;;-4.04;97.00
70968;BME280;58629;48.808;8.820;2023-12-04T04:40:11;96887.66;;;-3.99;96.72
70968;BME280;58629;48.808;8.820;2023-12-04T04:42:36;96886.25;;;-3.97;96.42
70968;BME280;58629;48.808;8.820;2023-12-04T04:45:02;96885.50;;;-3.97;95.86
70968;BME280;58629;48.808;8.820;2023-12-04T04:47:27;96885.00;;;-3.91;95.61
70968;BME280;58629;48.808;8.820;2023-12-04T04:49:53;96876.19;;;-3.78;94.35
70968;BME280;58629;48.808;8.820;2023-12-04T04:52:18;96868.66;;;-3.71;92.97
70968;BME280;58629;48.808;8.820;2023-12-04T04:54:43;96866.13;;;-3.59;91.16
70968;BME280;58629;48.808;8.820;2023-12-04T04:57:09;96872.28;;;-3.51;91.46
70968;BME280;58629;48.808;8.820;2023-12-04T04:59:34;96869.47;;;-3.46;92.34
70968;BME280;58629;48.808;8.820;2023-12-04T05:01:59;96864.38;;;-3.42;92.01
70968;BME280;58629;48.808;8.820;2023-12-04T05:04:25;96860.75;;;-3.41;92.43
70968;BME280;58629;48.808;8.820;2023-12-04T05:06:50;96845.22;;;-3.41;92.48
70968;BME280;58629;48.808;8.820;2023-12-04T05:09:15;96836.13;;;-3.47;92.86
70968;BME280;58629;48.808;8.820;2023-12-04T05:11:41;96843.78;;;-3.51;94.72
70968;BME280;58629;48.808;8.820;2023-12-04T05:14:06;96843.22;;;-3.69;95.10
70968;BME280;58629;48.808;8.820;2023-12-04T05:16:31;96835.34;;;-3.72;95.57
70968;BME280;58629;48.808;8.820;2023-12-04T05:18:57;96832.53;;;-3.79;96.01
70968;BME280;58629;48.808;8.820;2023-12-04T05:21:22;96828.84;;;-3.78;95.51
70968;BME280;58629;48.808;8.820;2023-12-04T05:23:48;96827.03;;;-3.78;96.95
70968;BME280;58629;48.808;8.820;2023-12-04T05:26:13;96832.22;;;-3.78;96.61
70968;BME280;58629;48.808;8.820;2023-12-04T05:28:39;96828.88;;;-3.66;94.85
70968;BME280;58629;48.808;8.820;2023-12-04T05:31:04;96825.22;;;-3.65;93.79
70968;BME280;58629;48.808;8.820;2023-12-04T05:33:30;96827.06;;;-3.66;95.73
70968;BME280;58629;48.808;8.820;2023-12-04T05:35:55;96819.63;;;-3.67;96.32
70968;BME280;58629;48.808;8.820;2023-12-04T05:38:21;96831.91;;;-3.64;96.07
70968;BME280;58629;48.808;8.820;2023-12-04T05:40:46;96820.81;;;-3.65;95.72
70968;BME280;58629;48.808;8.820;2023-12-04T05:43:12;96824.13;;;-3.64;95.44
70968;BME280;58629;48.808;8.820;2023-12-04T05:45:38;96808.19;;;-3.66;95.08
70968;BME280;58629;48.808;8.820;2023-12-04T05:48:04;96812.19;;;-3.69;94.32
70968;BME280;58629;48.808;8.820;2023-12-04T05:50:29;96807.97;;;-3.61;95.62
70968;BME280;58629;48.808;8.820;2023-12-04T05:52:55;96804.94;;;-3.75;95.57
70968;BME280;58629;48.808;8.820;2023-12-04T05:55:20;96804.69;;;-3.82;97.43
70968;BME280;58629;48.808;8.820;2023-12-04T05:57:46;96817.63;;;-3.82;98.53
70968;BME280;58629;48.808;8.820;2023-12-04T06:00:11;96825.63;;;-4.20;98.05
70968;BME280;58629;48.808;8.820;2023-12-04T06:02:44;96823.59;;;-4.14;97.48
70968;BME280;58629;48.808;8.820;2023-12-04T06:05:10;96827.63;;;-4.05;97.37
70968;BME280;58629;48.808;8.820;2023-12-04T06:07:36;96826.03;;;-3.97;97.37
70968;BME280;58629;48.808;8.820;2023-12-04T06:10:03;96831.75;;;-3.92;98.16
70968;BME280;58629;48.808;8.820;2023-12-04T06:12:31;96829.06;;;-3.83;97.42
70968;BME280;58629;48.808;8.820;2023-12-04T06:14:57;96821.97;;;-3.74;96.78
70968;BME280;58629;48.808;8.820;2023-12-04T06:17:23;96822.97;;;-3.67;96.96
70968;BME280;58629;48.808;8.820;2023-12-04T06:19:49;96804.63;;;-3.62;96.66
70968;BME280;58629;48.808;8.820;2023-12-04T06:22:14;96807.03;;;-3.57;96.88
70968;BME280;58629;48.808;8.820;2023-12-04T06:24:40;96804.66;;;-3.49;96.46
70968;BME280;58629;48.808;8.820;2023-12-04T06:27:06;96798.28;;;-3.40;97.33
70968;BME280;58629;48.808;8.820;2023-12-04T06:29:34;96796.88;;;-3.37;96.69
70968;BME280;58629;48.808;8.820;2023-12-04T06:32:00;96784.16;;;-3.30;96.38
70968;BME280;58629;48.808;8.820;2023-12-04T06:34:26;96786.19;;;-3.24;95.43
70968;BME280;58629;48.808;8.820;2023-12-04T06:36:51;96787.38;;;-3.21;94.66
70968;BME280;58629;48.808;8.820;2023-12-04T06:39:17;96783.84;;;-3.41;95.13
70968;BME280;58629;48.808;8.820;2023-12-04T06:41:43;96787.50;;;-3.42;96.79
70968;BME280;58629;48.808;8.820;2023-12-04T06:44:09;96783.94;;;-3.49;95.84
70968;BME280;58629;48.808;8.820;2023-12-04T06:46:39;96776.19;;;-3.37;96.30
70968;BME280;58629;48.808;8.820;2023-12-04T06:49:06;96772.28;;;-3.31;96.12
70968;BME280;58629;48.808;8.820;2023-12-04T06:51:32;96768.31;;;-3.29;96.40
70968;BME280;58629;48.808;8.820;2023-12-04T06:53:57;96758.38;;;-3.27;96.94
70968;BME280;58629;48.808;8.820;2023-12-04T06:56:23;96754.78;;;-3.22;96.70
70968;BME280;58629;48.808;8.820;2023-12-04T06:58:48;96755.56;;;-3.22;96.54
70968;BME280;58629;48.808;8.820;2023-12-04T07:01:13;96756.22;;;-3.25;96.55
70968;BME280;58629;48.808;8.820;2023-12-04T07:03:39;96757.38;;;-3.22;96.69
70968;BME280;58629;48.808;8.820;2023-12-04T07:06:05;96755.22;;;-3.20;96.74
70968;BME280;58629;48.808;8.820;2023-12-04T07:08:30;96750.91;;;-3.16;96.73
70968;BME280;58629;48.808;8.820;2023-12-04T07:10:55;96756.19;;;-3.13;96.57
70968;BME280;58629;48.808;8.820;2023-12-04T07:13:21;96746.25;;;-3.11;96.29
70968;BME280;58629;48.808;8.820;2023-12-04T07:15:46;96745.63;;;-3.08;96.05
70968;BME280;58629;48.808;8.820;2023-12-04T07:18:11;96740.09;;;-3.06;95.44
70968;BME280;58629;48.808;8.820;2023-12-04T07:20:37;96740.53;;;-3.04;95.97
70968;BME280;58629;48.808;8.820;2023-12-04T07:23:02;96735.78;;;-3.02;95.70
70968;BME280;58629;48.808;8.820;2023-12-04T07:25:28;96735.13;;;-2.99;95.40
70968;BME280;58629;48.808;8.820;2023-12-04T07:27:53;96739.66;;;-2.96;95.75
70968;BME280;58629;48.808;8.820;2023-12-04T07:30:18;96740.06;;;-2.94;95.59
70968;BME280;58629;48.808;8.820;2023-12-04T07:32:45;96743.19;;;-2.89;96.06
70968;BME280;58629;48.808;8.820;2023-12-04T07:35:11;96740.38;;;-2.84;95.84
70968;BME280;58629;48.808;8.820;2023-12-04T07:37:37;96742.72;;;-2.79;95.46
70968;BME280;58629;48.808;8.820;2023-12-04T07:40:03;96746.16;;;-2.75;95.33
70968;BME280;58629;48.808;8.820;2023-12-04T07:42:30;96735.16;;;-2.72;94.82
70968;BME280;58629;48.808;8.820;2023-12-04T07:44:56;96739.66;;;-2.69;95.15
70968;BME280;58629;48.808;8.820;2023-12-04T07:47:21;96740.50;;;-2.65;94.97
70968;BME280;58629;48.808;8.820;2023-12-04T07:49:47;96739.19;;;-2.58;94.81
70968;BME280;58629;48.808;8.820;2023-12-04T07:52:13;96741.88;;;-2.55;95.21
70968;BME280;58629;48.808;8.820;2023-12-04T07:54:38;96757.63;;;-2.48;95.05
70968;BME280;58629;48.808;8.820;2023-12-04T07:57:04;96756.75;;;-2.40;94.71
70968;BME280;58629;48.808;8.820;2023-12-04T07:59:29;96765.84;;;-2.46;93.61
70968;BME280;58629;48.808;8.820;2023-12-04T08:01:55;96755.63;;;-2.39;94.30
70968;BME280;58629;48.808;8.820;2023-12-04T08:04:20;96747.47;;;-2.25;92.91
70968;BME280;58629;48.808;8.820;2023-12-04T08:06:45;96733.91;;;-2.34;93.37
70968;BME280;58629;48.808;8.820;2023-12-04T08:09:11;96726.97;;;-2.30;92.07
70968;BME280;58629;48.808;8.820;2023-12-04T08:11:37;96731.75;;;-2.32;92.75
70968;BME280;58629;48.808;8.820;2023-12-04T08:14:03;96710.31;;;-2.29;92.99
70968;BME280;58629;48.808;8.820;2023-12-04T08:16:28;96717.88;;;-2.24;93.21
70968;BME280;58629;48.808;8.820;2023-12-04T08:18:55;96715.69;;;-2.22;92.64
70968;BME280;58629;48.808;8.820;2023-12-04T08:21:20;96718.03;;;-2.17;93.75
70968;BME280;58629;48.808;8.820;2023-12-04T08:23:46;96711.59;;;-2.08;94.04
70968;BME280;58629;48.808;8.820;2023-12-04T08:26:11;96715.44;;;-2.02;93.37
70968;BME280;58629;48.808;8.820;2023-12-04T08:28:37;96700.22;;;-1.88;97.08
70968;BME280;58629;48.808;8.820;2023-12-04T08:31:09;96692.69;;;-1.77;98.61
70968;BME280;58629;48.808;8.820;2023-12-04T08:33:35;96687.13;;;-1.60;97.70
70968;BME280;58629;48.808;8.820;2023-12-04T08:36:00;96693.09;;;-1.40;97.84
70968;BME280;58629;48.808;8.820;2023-12-04T08:38:26;96680.91;;;-1.21;95.75
70968;BME280;58629;48.808;8.820;2023-12-04T08:40:51;96698.50;;;-0.95;96.74
70968;BME280;58629;48.808;8.820;2023-12-04T08:43:17;96696.72;;;-0.72;95.05
70968;BME280;58629;48.808;8.820;2023-12-04T08:45:44;96697.56;;;-0.68;93.75
70968;BME280;58629;48.808;8.820;2023-12-04T08:48:10;96691.13;;;-0.32;100.00
70968;BME280;58629;48.808;8.820;2023-12-04T08:50:35;96702.28;;;0.36;100.00
70968;BME280;58629;48.808;8.820;2023-12-04T08:53:02;96691.66;;;1.04;100.00
70968;BME280;58629;48.808;8.820;2023-12-04T08:55:27;96704.72;;;1.74;100.00
70968;BME280;58629;48.808;8.820;2023-12-04T08:57:53;96693.97;;;2.26;97.91
70968;BME280;58629;48.808;8.820;2023-12-04T09:00:19;96698.34;;;2.66;90.02
70968;BME280;58629;48.808;8.820;2023-12-04T09:02:44;96691.81;;;2.97;88.08
70968;BME280;58629;48.808;8.820;2023-12-04T09:05:10;96693.03;;;3.24;85.07
70968;BME280;58629;48.808;8.820;2023-12-04T09:07:36;96694.97;;;3.44;83.43
70968;BME280;58629;48.808;8.820;2023-12-04T09:10:02;96686.03;;;3.67;81.09
70968;BME280;58629;48.808;8.820;2023-12-04T09:12:27;96692.75;;;3.61;79.23
70968;BME280;58629;48.808;8.820;2023-12-04T09:14:52;96698.78;;;3.79;78.56
70968;BME280;58629;48.808;8.820;2023-12-04T09:17:18;96708.16;;;4.01;79.03
70968;BME280;58629;48.808;8.820;2023-12-04T09:19:43;96705.19;;;4.16;76.44
70968;BME280;58629;48.808;8.820;2023-12-04T09:22:09;96710.81;;;4.25;73.71
70968;BME280;58629;48.808;8.820;2023-12-04T09:24:34;96705.94;;;4.24;72.60
70968;BME280;58629;48.808;8.820;2023-12-04T09:26:59;96720.91;;;4.20;71.30
70968;BME280;58629;48.808;8.820;2023-12-04T09:29:25;96723.19;;;4.18;71.27
70968;BME280;58629;48.808;8.820;2023-12-04T09:31:53;96713.44;;;4.15;70.19
70968;BME280;58629;48.808;8.820;2023-12-04T09:34:19;96712.31;;;4.19;72.22
70968;BME280;58629;48.808;8.820;2023-12-04T09:36:46;96713.75;;;3.75;68.66
70968;BME280;58629;48.808;8.820;2023-12-04T09:39:12;96716.75;;;3.91;70.97
70968;BME280;58629;48.808;8.820;2023-12-04T09:41:38;96702.19;;;4.11;72.22
70968;BME280;58629;48.808;8.820;2023-12-04T09:44:06;96695.06;;;3.90;70.46
70968;BME280;58629;48.808;8.820;2023-12-04T09:46:34;96696.09;;;3.40;65.44
70968;BME280;58629;48.808;8.820;2023-12-04T09:49:00;96687.28;;;2.87;66.42
70968;BME280;58629;48.808;8.820;2023-12-04T09:51:27;96687.47;;;3.43;74.30
70968;BME280;58629;48.808;8.820;2023-12-04T09:53:53;96678.59;;;3.72;74.30
70968;BME280;58629;48.808;8.820;2023-12-04T09:56:21;96668.50;;;4.02;74.80
70968;BME280;58629;48.808;8.820;2023-12-04T09:58:52;96680.84;;;4.44;74.68
70968;BME280;58629;48.808;8.820;2023-12-04T10:01:17;96667.31;;;4.60;71.56
70968;BME280;58629;48.808;8.820;2023-12-04T10:03:43;96677.38;;;4.86;69.76
70968;BME280;58629;48.808;8.820;2023-12-04T10:06:10;96683.31;;;5.07;67.94
70968;BME280;58629;48.808;8.820;2023-12-04T10:08:37;96675.75;;;5.23;68.30
70968;BME280;58629;48.808;8.820;2023-12-04T10:11:02;96676.44;;;5.38;69.78
70968;BME280;58629;48.808;8.820;2023-12-04T10:13:28;96674.47;;;5.53;67.27
70968;BME280;58629;48.808;8.820;2023-12-04T10:15:53;96684.25;;;5.49;63.72
70968;BME280;58629;48.808;8.820;2023-12-04T10:20:55;96679.94;;;5.10;61.51
70968;BME280;58629;48.808;8.820;2023-12-04T10:23:21;96667.31;;;4.67;64.63
70968;BME280;58629;48.808;8.820;2023-12-04T10:25:48;96655.75;;;4.57;69.58
70968;BME280;58629;48.808;8.820;2023-12-04T10:28:15;96652.34;;;4.60;71.18
70968;BME280;58629;48.808;8.820;2023-12-04T10:30:41;96647.53;;;4.37;68.25
70968;BME280;58629;48.808;8.820;2023-12-04T10:33:07;96641.56;;;4.09;65.89
70968;BME280;58629;48.808;8.820;2023-12-04T10:35:34;96635.94;;;4.24;65.49
70968;BME280;58629;48.808;8.820;2023-12-04T10:38:04;96631.81;;;4.09;68.54
70968;BME280;58629;48.808;8.820;2023-12-04T10:40:32;96618.72;;;3.60;64.07
70968;BME280;58629;48.808;8.820;2023-12-04T10:45:41;96600.84;;;2.55;68.13
70968;BME280;58629;48.808;8.820;2023-12-04T10:48:07;96601.03;;;2.22;69.46
70968;BME280;58629;48.808;8.820;2023-12-04T10:50:44;96594.03;;;1.82;72.09
70968;BME280;58629;48.808;8.820;2023-12-04T10:53:14;96583.91;;;1.73;72.70
70968;BME280;58629;48.808;8.820;2023-12-04T10:55:40;96587.19;;;1.63;73.09
70968;BME280;58629;48.808;8.820;2023-12-04T10:58:11;96581.94;;;1.60;73.75
70968;BME280;58629;48.808;8.820;2023-12-04T11:00:47;96577.38;;;1.50;75.18
70968;BME280;58629;48.808;8.820;2023-12-04T11:03:21;96588.88;;;1.45;76.01
70968;BME280;58629;48.808;8.820;2023-12-04T11:05:53;96586.44;;;1.23;75.96
70968;BME280;58629;48.808;8.820;2023-12-04T11:08:20;96588.94;;;1.12;76.99
70968;BME280;58629;48.808;8.820;2023-12-04T11:11:03;96585.59;;;1.15;77.62
70968;BME280;58629;48.808;8.820;2023-12-04T11:13:30;96582.28;;;1.15;79.59
70968;BME280;58629;48.808;8.820;2023-12-04T11:18:36;96585.91;;;1.07;80.29
70968;BME280;58629;48.808;8.820;2023-12-04T11:21:07;96588.03;;;0.98;81.04
70968;BME280;58629;48.808;8.820;2023-12-04T11:23:34;96581.34;;;0.97;82.44
70968;BME280;58629;48.808;8.820;2023-12-04T11:26:00;96568.69;;;0.99;84.24
70968;BME280;58629;48.808;8.820;2023-12-04T11:28:27;96553.44;;;1.01;85.00
70968;BME280;58629;48.808;8.820;2023-12-04T11:30:53;96558.59;;;0.97;87.25
70968;BME280;58629;48.808;8.820;2023-12-04T11:33:20;96533.00;;;1.06;86.96
70968;BME280;58629;48.808;8.820;2023-12-04T11:35:46;96526.25;;;1.02;88.59
70968;BME280;58629;48.808;8.820;2023-12-04T11:38:14;96524.00;;;1.00;90.39
70968;BME280;58629;48.808;8.820;2023-12-04T11:40:40;96520.09;;;1.17;89.83
70968;BME280;58629;48.808;8.820;2023-12-04T11:43:27;96509.28;;;1.18;89.88
70968;BME280;58629;48.808;8.820;2023-12-04T11:46:07;96510.47;;;1.28;91.44
70968;BME280;58629;48.808;8.820;2023-12-04T11:48:33;96500.03;;;1.24;91.97
70968;BME280;58629;48.808;8.820;2023-12-04T11:50:59;96490.38;;;1.28;92.42
70968;BME280;58629;48.808;8.820;2023-12-04T11:53:25;96499.75;;;1.36;92.58
70968;BME280;58629;48.808;8.820;2023-12-04T11:55:55;96487.81;;;1.35;92.09
70968;BME280;58629;48.808;8.820;2023-12-04T11:58:22;96491.03;;;1.18;93.73
70968;BME280;58629;48.808;8.820;2023-12-04T12:00:47;96486.13;;;1.13;94.39
70968;BME280;58629;48.808;8.820;2023-12-04T12:03:14;96477.97;;;1.15;94.97
70968;BME280;58629;48.808;8.820;2023-12-04T12:05:40;96471.31;;;1.21;94.67
70968;BME280;58629;48.808;8.820;2023-12-04T12:08:07;96468.00;;;1.31;95.16
70968;BME280;58629;48.808;8.820;2023-12-04T12:10:33;96459.47;;;1.34;95.23
70968;BME280;58629;48.808;8.820;2023-12-04T12:12:59;96451.66;;;1.34;94.67
70968;BME280;58629;48.808;8.820;2023-12-04T12:15:25;96452.72;;;1.26;95.04
70968;BME280;58629;48.808;8.820;2023-12-04T12:17:50;96450.09;;;1.26;95.63
70968;BME280;58629;48.808;8.820;2023-12-04T12:20:19;96435.53;;;1.21;95.07
70968;BME280;58629;48.808;8.820;2023-12-04T12:22:48;96445.25;;;1.24;95.17
70968;BME280;58629;48.808;8.820;2023-12-04T12:25:14;96445.97;;;1.21;95.38
70968;BME280;58629;48.808;8.820;2023-12-04T12:27:40;96445.94;;;1.18;95.98
70968;BME280;58629;48.808;8.820;2023-12-04T12:30:06;96434.41;;;1.19;95.90
70968;BME280;58629;48.808;8.820;2023-12-04T12:32:35;96428.44;;;1.18;96.18
70968;BME280;58629;48.808;8.820;2023-12-04T12:35:01;96426.22;;;1.17;96.43
70968;BME280;58629;48.808;8.820;2023-12-04T12:37:28;96416.59;;;1.31;95.45
70968;BME280;58629;48.808;8.820;2023-12-04T12:39:53;96419.69;;;1.44;95.14
70968;BME280;58629;48.808;8.820;2023-12-04T12:42:26;96405.97;;;1.57;94.59
70968;BME280;58629;48.808;8.820;2023-12-04T12:44:52;96410.81;;;1.59;93.78
70968;BME280;58629;48.808;8.820;2023-12-04T12:47:18;96413.03;;;1.53;94.23
70968;BME280;58629;48.808;8.820;2023-12-04T12:49:44;96404.06;;;1.51;95.16
70968;BME280;58629;48.808;8.820;2023-12-04T12:52:10;96406.66;;;1.51;95.83
70968;BME280;58629;48.808;8.820;2023-12-04T12:54:43;96404.44;;;1.49;96.82
70968;BME280;58629;48.808;8.820;2023-12-04T12:57:10;96402.56;;;1.46;97.57
70968;BME280;58629;48.808;8.820;2023-12-04T12:59:37;96396.19;;;1.44;98.53
70968;BME280;58629;48.808;8.820;2023-12-04T13:02:04;96390.59;;;1.45;99.48
70968;BME280;58629;48.808;8.820;2023-12-04T13:04:43;96384.63;;;1.45;100.00